sensor_id;sensor_type;location;lat;lon;timestamp;P1;durP1;ratioP1;P2;durP2;ratioP2
20535;SDS011;10426;49.420;8.390;2023-08-20T00:00:43;4.10;;;3.60;;
20535;SDS011;10426;49.420;8.390;2023-08-20T00:03:11;3.50;;;3.30;;
20535;SDS011;10426;49.420;8.390;2023-08-20T00:05:38;3.75;;;3.45;;
20535;SDS011;10426;49.420;8.390;2023-08-20T00:08:05;3.83;;;3.33;;
20535;SDS011;10426;49.420;8.390;2023-08-20T00:10:32;3.78;;;3.47;;
20535;SDS011;10426;49.420;8.390;2023-08-20T00:12:59;3.63;;;3.42;;
20535;SDS011;10426;49.420;8.390;2023-08-20T00:15:27;3.58;;;3.35;;
20535;SDS011;10426;49.420;8.390;2023-08-20T00:17:54;3.70;;;3.40;;
20535;SDS011;10426;49.420;8.390;2023-08-20T00:20:21;3.90;;;3.60;;
20535;SDS011;10426;49.420;8.390;2023-08-20T00:22:48;4.25;;;3.85;;
20535;SDS011;10426;49.420;8.390;2023-08-20T00:25:16;4.77;;;3.60;;
20535;SDS011;10426;49.420;8.390;2023-08-20T00:27:42;3.70;;;3.40;;
20535;SDS011;10426;49.420;8.390;2023-08-20T00:30:10;4.32;;;3.53;;
20535;SDS011;10426;49.420;8.390;2023-08-20T00:32:38;3.70;;;3.40;;
20535;SDS011;10426;49.420;8.390;2023-08-20T00:35:05;4.13;;;3.83;;
20535;SDS011;10426;49.420;8.390;2023-08-20T00:37:32;4.00;;;3.70;;
20535;SDS011;10426;49.420;8.390;2023-08-20T00:39:59;4.20;;;3.80;;
20535;SDS011;10426;49.420;8.390;2023-08-20T00:42:26;3.97;;;3.67;;
20535;SDS011;10426;49.420;8.390;2023-08-20T00:44:53;3.90;;;3.70;;
20535;SDS011;10426;49.420;8.390;2023-08-20T00:47:19;5.97;;;3.92;;
20535;SDS011;10426;49.420;8.390;2023-08-20T00:49:47;4.18;;;3.78;;
20535;SDS011;10426;49.420;8.390;2023-08-20T00:52:14;4.53;;;3.65;;
20535;SDS011;10426;49.420;8.390;2023-08-20T00:54:44;4.13;;;3.78;;
20535;SDS011;10426;49.420;8.390;2023-08-20T00:57:10;3.80;;;3.50;;
20535;SDS011;10426;49.420;8.390;2023-08-20T00:59:38;4.72;;;3.92;;
20535;SDS011;10426;49.420;8.390;2023-08-20T01:02:05;4.30;;;3.97;;
20535;SDS011;10426;49.420;8.390;2023-08-20T01:04:31;4.40;;;4.00;;
20535;SDS011;10426;49.420;8.390;2023-08-20T01:07:02;4.00;;;3.70;;
20535;SDS011;10426;49.420;8.390;2023-08-20T01:09:32;4.25;;;3.95;;
20535;SDS011;10426;49.420;8.390;2023-08-20T01:12:02;4.53;;;4.10;;
20535;SDS011;10426;49.420;8.390;2023-08-20T01:14:29;5.00;;;4.28;;
20535;SDS011;10426;49.420;8.390;2023-08-20T01:16:56;4.30;;;3.90;;
20535;SDS011;10426;49.420;8.390;2023-08-20T01:19:22;4.50;;;4.10;;
20535;SDS011;10426;49.420;8.390;2023-08-20T01:21:55;4.30;;;4.05;;
20535;SDS011;10426;49.420;8.390;2023-08-20T01:24:27;4.13;;;3.90;;
20535;SDS011;10426;49.420;8.390;2023-08-20T01:27:01;5.57;;;4.00;;
20535;SDS011;10426;49.420;8.390;2023-08-20T01:29:31;4.22;;;3.90;;
20535;SDS011;10426;49.420;8.390;2023-08-20T01:31:58;4.43;;;4.13;;
20535;SDS011;10426;49.420;8.390;2023-08-20T01:34:25;4.50;;;4.10;;
20535;SDS011;10426;49.420;8.390;2023-08-20T01:36:52;4.40;;;4.10;;
20535;SDS011;10426;49.420;8.390;2023-08-20T01:39:19;5.43;;;4.22;;
20535;SDS011;10426;49.420;8.390;2023-08-20T01:41:45;4.35;;;4.00;;
20535;SDS011;10426;49.420;8.390;2023-08-20T01:44:12;4.00;;;3.75;;
20535;SDS011;10426;49.420;8.390;2023-08-20T01:46:40;4.40;;;4.10;;
20535;SDS011;10426;49.420;8.390;2023-08-20T01:49:07;4.70;;;4.25;;
20535;SDS011;10426;49.420;8.390;2023-08-20T01:51:33;4.47;;;4.07;;
20535;SDS011;10426;49.420;8.390;2023-08-20T01:54:01;4.38;;;4.00;;
20535;SDS011;10426;49.420;8.390;2023-08-20T01:56:28;4.40;;;4.07;;
20535;SDS011;10426;49.420;8.390;2023-08-20T01:58:55;4.77;;;4.40;;
20535;SDS011;10426;49.420;8.390;2023-08-20T02:01:22;4.57;;;4.28;;
20535;SDS011;10426;49.420;8.390;2023-08-20T02:03:52;4.68;;;4.28;;
20535;SDS011;10426;49.420;8.390;2023-08-20T02:06:19;4.95;;;4.45;;
20535;SDS011;10426;49.420;8.390;2023-08-20T02:08:46;5.05;;;4.18;;
20535;SDS011;10426;49.420;8.390;2023-08-20T02:11:12;4.90;;;4.40;;
20535;SDS011;10426;49.420;8.390;2023-08-20T02:13:39;5.03;;;4.60;;
20535;SDS011;10426;49.420;8.390;2023-08-20T02:16:06;4.82;;;4.40;;
20535;SDS011;10426;49.420;8.390;2023-08-20T02:18:33;6.05;;;5.10;;
20535;SDS011;10426;49.420;8.390;2023-08-20T02:21:00;6.28;;;5.68;;
20535;SDS011;10426;49.420;8.390;2023-08-20T02:23:28;7.23;;;6.17;;
20535;SDS011;10426;49.420;8.390;2023-08-20T02:25:54;7.07;;;6.00;;
20535;SDS011;10426;49.420;8.390;2023-08-20T02:28:21;8.45;;;5.60;;
20535;SDS011;10426;49.420;8.390;2023-08-20T02:30:48;5.75;;;5.13;;
20535;SDS011;10426;49.420;8.390;2023-08-20T02:33:14;6.57;;;4.90;;
20535;SDS011;10426;49.420;8.390;2023-08-20T02:35:41;6.22;;;4.65;;
20535;SDS011;10426;49.420;8.390;2023-08-20T02:38:09;4.63;;;4.30;;
20535;SDS011;10426;49.420;8.390;2023-08-20T02:40:39;5.18;;;4.45;;
20535;SDS011;10426;49.420;8.390;2023-08-20T02:43:06;4.65;;;4.28;;
20535;SDS011;10426;49.420;8.390;2023-08-20T02:45:33;5.75;;;4.78;;
20535;SDS011;10426;49.420;8.390;2023-08-20T02:48:00;5.53;;;4.47;;
20535;SDS011;10426;49.420;8.390;2023-08-20T02:50:26;4.93;;;4.53;;
20535;SDS011;10426;49.420;8.390;2023-08-20T02:52:54;4.40;;;4.10;;
20535;SDS011;10426;49.420;8.390;2023-08-20T02:55:22;5.22;;;4.72;;
20535;SDS011;10426;49.420;8.390;2023-08-20T02:57:49;5.13;;;4.55;;
20535;SDS011;10426;49.420;8.390;2023-08-20T03:00:15;7.90;;;5.00;;
20535;SDS011;10426;49.420;8.390;2023-08-20T03:02:42;5.65;;;4.88;;
20535;SDS011;10426;49.420;8.390;2023-08-20T03:05:09;6.13;;;5.18;;
20535;SDS011;10426;49.420;8.390;2023-08-20T03:07:36;5.88;;;5.38;;
20535;SDS011;10426;49.420;8.390;2023-08-20T03:10:03;6.57;;;5.60;;
20535;SDS011;10426;49.420;8.390;2023-08-20T03:12:31;5.65;;;5.20;;
20535;SDS011;10426;49.420;8.390;2023-08-20T03:14:58;5.90;;;5.40;;
20535;SDS011;10426;49.420;8.390;2023-08-20T03:17:24;5.93;;;5.28;;
20535;SDS011;10426;49.420;8.390;2023-08-20T03:19:54;6.10;;;5.60;;
20535;SDS011;10426;49.420;8.390;2023-08-20T03:22:21;5.75;;;5.22;;
20535;SDS011;10426;49.420;8.390;2023-08-20T03:24:48;5.50;;;5.10;;
20535;SDS011;10426;49.420;8.390;2023-08-20T03:27:15;6.67;;;5.90;;
20535;SDS011;10426;49.420;8.390;2023-08-20T03:29:43;6.85;;;5.40;;
20535;SDS011;10426;49.420;8.390;2023-08-20T03:32:09;5.80;;;5.30;;
20535;SDS011;10426;49.420;8.390;2023-08-20T03:34:36;5.87;;;5.47;;
20535;SDS011;10426;49.420;8.390;2023-08-20T03:37:03;5.97;;;5.40;;
20535;SDS011;10426;49.420;8.390;2023-08-20T03:39:30;5.87;;;5.37;;
20535;SDS011;10426;49.420;8.390;2023-08-20T03:41:56;6.18;;;5.68;;
20535;SDS011;10426;49.420;8.390;2023-08-20T03:44:23;6.05;;;5.22;;
20535;SDS011;10426;49.420;8.390;2023-08-20T03:46:51;5.40;;;5.00;;
20535;SDS011;10426;49.420;8.390;2023-08-20T03:49:18;6.03;;;5.43;;
20535;SDS011;10426;49.420;8.390;2023-08-20T03:51:44;6.43;;;5.60;;
20535;SDS011;10426;49.420;8.390;2023-08-20T03:54:11;5.83;;;5.33;;
20535;SDS011;10426;49.420;8.390;2023-08-20T03:56:38;7.35;;;5.18;;
20535;SDS011;10426;49.420;8.390;2023-08-20T03:59:04;5.70;;;5.20;;
20535;SDS011;10426;49.420;8.390;2023-08-20T04:01:31;5.80;;;5.30;;
20535;SDS011;10426;49.420;8.390;2023-08-20T04:03:59;5.47;;;5.05;;
20535;SDS011;10426;49.420;8.390;2023-08-20T04:06:26;5.40;;;5.00;;
20535;SDS011;10426;49.420;8.390;2023-08-20T04:08:52;5.37;;;4.97;;
20535;SDS011;10426;49.420;8.390;2023-08-20T04:11:19;5.60;;;5.10;;
20535;SDS011;10426;49.420;8.390;2023-08-20T04:13:46;29.38;;;6.78;;
20535;SDS011;10426;49.420;8.390;2023-08-20T04:16:12;5.80;;;5.10;;
20535;SDS011;10426;49.420;8.390;2023-08-20T04:18:39;6.13;;;5.35;;
20535;SDS011;10426;49.420;8.390;2023-08-20T04:21:07;5.40;;;4.90;;
20535;SDS011;10426;49.420;8.390;2023-08-20T04:23:34;5.30;;;4.90;;
20535;SDS011;10426;49.420;8.390;2023-08-20T04:26:00;5.43;;;4.93;;
20535;SDS011;10426;49.420;8.390;2023-08-20T04:28:27;5.43;;;5.03;;
20535;SDS011;10426;49.420;8.390;2023-08-20T04:30:53;5.20;;;4.70;;
20535;SDS011;10426;49.420;8.390;2023-08-20T04:33:20;5.20;;;4.70;;
20535;SDS011;10426;49.420;8.390;2023-08-20T04:35:48;6.28;;;5.13;;
20535;SDS011;10426;49.420;8.390;2023-08-20T04:38:16;6.68;;;5.35;;
20535;SDS011;10426;49.420;8.390;2023-08-20T04:40:45;5.55;;;5.05;;
20535;SDS011;10426;49.420;8.390;2023-08-20T04:43:12;8.68;;;5.38;;
20535;SDS011;10426;49.420;8.390;2023-08-20T04:45:38;7.20;;;5.38;;
20535;SDS011;10426;49.420;8.390;2023-08-20T04:48:05;6.15;;;5.07;;
20535;SDS011;10426;49.420;8.390;2023-08-20T04:50:32;5.90;;;5.40;;
20535;SDS011;10426;49.420;8.390;2023-08-20T04:52:58;6.28;;;5.18;;
20535;SDS011;10426;49.420;8.390;2023-08-20T04:55:26;6.53;;;5.05;;
20535;SDS011;10426;49.420;8.390;2023-08-20T04:57:53;5.82;;;5.10;;
20535;SDS011;10426;49.420;8.390;2023-08-20T05:00:21;6.03;;;5.30;;
20535;SDS011;10426;49.420;8.390;2023-08-20T05:02:48;6.93;;;5.25;;
20535;SDS011;10426;49.420;8.390;2023-08-20T05:05:14;5.90;;;5.30;;
20535;SDS011;10426;49.420;8.390;2023-08-20T05:07:41;7.18;;;5.30;;
20535;SDS011;10426;49.420;8.390;2023-08-20T05:10:08;5.35;;;4.95;;
20535;SDS011;10426;49.420;8.390;2023-08-20T05:12:36;5.90;;;4.90;;
20535;SDS011;10426;49.420;8.390;2023-08-20T05:15:03;5.82;;;5.32;;
20535;SDS011;10426;49.420;8.390;2023-08-20T05:17:30;6.40;;;5.60;;
20535;SDS011;10426;49.420;8.390;2023-08-20T05:19:56;6.78;;;5.05;;
20535;SDS011;10426;49.420;8.390;2023-08-20T05:22:23;7.70;;;5.63;;
20535;SDS011;10426;49.420;8.390;2023-08-20T05:24:50;5.85;;;5.00;;
20535;SDS011;10426;49.420;8.390;2023-08-20T05:27:16;10.10;;;5.60;;
20535;SDS011;10426;49.420;8.390;2023-08-20T05:29:44;5.72;;;5.22;;
20535;SDS011;10426;49.420;8.390;2023-08-20T05:32:11;7.30;;;5.30;;
20535;SDS011;10426;49.420;8.390;2023-08-20T05:34:38;6.82;;;4.80;;
20535;SDS011;10426;49.420;8.390;2023-08-20T05:37:04;5.90;;;5.30;;
20535;SDS011;10426;49.420;8.390;2023-08-20T05:39:35;5.65;;;5.00;;
20535;SDS011;10426;49.420;8.390;2023-08-20T05:42:03;5.72;;;5.15;;
20535;SDS011;10426;49.420;8.390;2023-08-20T05:44:29;5.72;;;4.60;;
20535;SDS011;10426;49.420;8.390;2023-08-20T05:46:57;5.20;;;4.70;;
20535;SDS011;10426;49.420;8.390;2023-08-20T05:49:24;5.07;;;4.68;;
20535;SDS011;10426;49.420;8.390;2023-08-20T05:51:51;4.60;;;4.30;;
20535;SDS011;10426;49.420;8.390;2023-08-20T05:54:17;8.30;;;4.80;;
20535;SDS011;10426;49.420;8.390;2023-08-20T05:56:44;4.80;;;4.40;;
20535;SDS011;10426;49.420;8.390;2023-08-20T05:59:10;5.25;;;4.75;;
20535;SDS011;10426;49.420;8.390;2023-08-20T06:01:37;5.43;;;4.37;;
20535;SDS011;10426;49.420;8.390;2023-08-20T06:04:05;5.07;;;4.57;;
20535;SDS011;10426;49.420;8.390;2023-08-20T06:06:32;6.82;;;4.90;;
20535;SDS011;10426;49.420;8.390;2023-08-20T06:08:58;5.03;;;4.63;;
20535;SDS011;10426;49.420;8.390;2023-08-20T06:11:25;4.88;;;4.47;;
20535;SDS011;10426;49.420;8.390;2023-08-20T06:13:52;7.13;;;4.60;;
20535;SDS011;10426;49.420;8.390;2023-08-20T06:16:18;6.43;;;4.93;;
20535;SDS011;10426;49.420;8.390;2023-08-20T06:18:45;4.97;;;4.50;;
20535;SDS011;10426;49.420;8.390;2023-08-20T06:21:13;5.00;;;4.45;;
20535;SDS011;10426;49.420;8.390;2023-08-20T06:23:40;4.70;;;4.30;;
20535;SDS011;10426;49.420;8.390;2023-08-20T06:26:06;6.68;;;4.57;;
20535;SDS011;10426;49.420;8.390;2023-08-20T06:28:33;5.00;;;4.50;;
20535;SDS011;10426;49.420;8.390;2023-08-20T06:30:59;6.10;;;4.20;;
20535;SDS011;10426;49.420;8.390;2023-08-20T06:33:26;4.70;;;4.30;;
20535;SDS011;10426;49.420;8.390;2023-08-20T06:35:53;5.15;;;4.70;;
20535;SDS011;10426;49.420;8.390;2023-08-20T06:38:21;6.30;;;4.53;;
20535;SDS011;10426;49.420;8.390;2023-08-20T06:40:47;5.15;;;4.50;;
20535;SDS011;10426;49.420;8.390;2023-08-20T06:43:14;5.10;;;4.60;;
20535;SDS011;10426;49.420;8.390;2023-08-20T06:45:41;4.80;;;4.40;;
20535;SDS011;10426;49.420;8.390;2023-08-20T06:48:07;5.18;;;4.38;;
20535;SDS011;10426;49.420;8.390;2023-08-20T06:50:34;4.97;;;4.57;;
20535;SDS011;10426;49.420;8.390;2023-08-20T06:53:00;4.80;;;4.40;;
20535;SDS011;10426;49.420;8.390;2023-08-20T06:55:28;5.65;;;4.22;;
20535;SDS011;10426;49.420;8.390;2023-08-20T06:57:55;4.93;;;4.28;;
20535;SDS011;10426;49.420;8.390;2023-08-20T07:00:22;4.70;;;4.30;;
20535;SDS011;10426;49.420;8.390;2023-08-20T07:02:48;4.30;;;3.95;;
20535;SDS011;10426;49.420;8.390;2023-08-20T07:05:15;4.47;;;4.15;;
20535;SDS011;10426;49.420;8.390;2023-08-20T07:07:42;6.55;;;4.28;;
20535;SDS011;10426;49.420;8.390;2023-08-20T07:10:09;5.43;;;4.18;;
20535;SDS011;10426;49.420;8.390;2023-08-20T07:12:37;4.43;;;4.03;;
20535;SDS011;10426;49.420;8.390;2023-08-20T07:15:04;5.40;;;4.20;;
20535;SDS011;10426;49.420;8.390;2023-08-20T07:17:31;5.10;;;4.20;;
20535;SDS011;10426;49.420;8.390;2023-08-20T07:19:57;5.25;;;4.25;;
20535;SDS011;10426;49.420;8.390;2023-08-20T07:22:24;4.55;;;4.15;;
20535;SDS011;10426;49.420;8.390;2023-08-20T07:24:51;5.00;;;4.50;;
20535;SDS011;10426;49.420;8.390;2023-08-20T07:27:17;4.65;;;4.07;;
20535;SDS011;10426;49.420;8.390;2023-08-20T07:29:45;5.40;;;4.38;;
20535;SDS011;10426;49.420;8.390;2023-08-20T07:32:12;4.82;;;4.13;;
20535;SDS011;10426;49.420;8.390;2023-08-20T07:34:38;5.15;;;4.10;;
20535;SDS011;10426;49.420;8.390;2023-08-20T07:37:05;4.40;;;4.00;;
20535;SDS011;10426;49.420;8.390;2023-08-20T07:39:32;4.30;;;3.90;;
20535;SDS011;10426;49.420;8.390;2023-08-20T07:41:58;5.35;;;4.13;;
20535;SDS011;10426;49.420;8.390;2023-08-20T07:44:25;4.40;;;4.00;;
20535;SDS011;10426;49.420;8.390;2023-08-20T07:46:54;5.05;;;3.90;;
20535;SDS011;10426;49.420;8.390;2023-08-20T07:49:21;4.30;;;4.00;;
20535;SDS011;10426;49.420;8.390;2023-08-20T07:51:48;4.93;;;4.13;;
20535;SDS011;10426;49.420;8.390;2023-08-20T07:54:17;4.50;;;4.10;;
20535;SDS011;10426;49.420;8.390;2023-08-20T07:56:44;4.68;;;4.15;;
20535;SDS011;10426;49.420;8.390;2023-08-20T07:59:11;4.25;;;3.92;;
20535;SDS011;10426;49.420;8.390;2023-08-20T08:01:37;4.63;;;4.10;;
20535;SDS011;10426;49.420;8.390;2023-08-20T08:04:05;4.63;;;4.22;;
20535;SDS011;10426;49.420;8.390;2023-08-20T08:06:32;4.53;;;4.20;;
20535;SDS011;10426;49.420;8.390;2023-08-20T08:11:40;5.53;;;4.10;;
20535;SDS011;10426;49.420;8.390;2023-08-20T08:14:07;8.57;;;4.67;;
20535;SDS011;10426;49.420;8.390;2023-08-20T08:16:34;4.60;;;4.20;;
20535;SDS011;10426;49.420;8.390;2023-08-20T08:19:01;4.35;;;3.88;;
20535;SDS011;10426;49.420;8.390;2023-08-20T08:21:29;5.80;;;4.20;;
20535;SDS011;10426;49.420;8.390;2023-08-20T08:23:55;4.55;;;4.10;;
20535;SDS011;10426;49.420;8.390;2023-08-20T08:26:22;4.82;;;4.35;;
20535;SDS011;10426;49.420;8.390;2023-08-20T08:28:49;4.45;;;4.05;;
20535;SDS011;10426;49.420;8.390;2023-08-20T08:31:15;4.25;;;3.85;;
20535;SDS011;10426;49.420;8.390;2023-08-20T08:33:42;5.30;;;3.97;;
20535;SDS011;10426;49.420;8.390;2023-08-20T08:36:08;4.32;;;3.53;;
20535;SDS011;10426;49.420;8.390;2023-08-20T08:38:37;4.38;;;3.97;;
20535;SDS011;10426;49.420;8.390;2023-08-20T08:41:04;5.82;;;4.28;;
20535;SDS011;10426;49.420;8.390;2023-08-20T08:43:35;4.25;;;3.85;;
20535;SDS011;10426;49.420;8.390;2023-08-20T08:46:03;4.45;;;3.95;;
20535;SDS011;10426;49.420;8.390;2023-08-20T08:48:31;4.30;;;3.90;;
20535;SDS011;10426;49.420;8.390;2023-08-20T08:50:58;3.87;;;3.53;;
20535;SDS011;10426;49.420;8.390;2023-08-20T08:53:25;4.38;;;4.07;;
20535;SDS011;10426;49.420;8.390;2023-08-20T08:55:53;5.28;;;3.72;;
20535;SDS011;10426;49.420;8.390;2023-08-20T08:58:20;3.60;;;3.40;;
20535;SDS011;10426;49.420;8.390;2023-08-20T09:00:46;5.00;;;3.80;;
20535;SDS011;10426;49.420;8.390;2023-08-20T09:03:13;3.60;;;3.30;;
20535;SDS011;10426;49.420;8.390;2023-08-20T09:05:47;3.87;;;3.57;;
20535;SDS011;10426;49.420;8.390;2023-08-20T09:08:20;4.10;;;3.80;;
20535;SDS011;10426;49.420;8.390;2023-08-20T09:10:49;4.72;;;3.50;;
20535;SDS011;10426;49.420;8.390;2023-08-20T09:13:17;4.00;;;3.70;;
20535;SDS011;10426;49.420;8.390;2023-08-20T09:15:45;4.10;;;3.53;;
20535;SDS011;10426;49.420;8.390;2023-08-20T09:18:11;4.85;;;3.70;;
20535;SDS011;10426;49.420;8.390;2023-08-20T09:20:38;4.25;;;3.70;;
20535;SDS011;10426;49.420;8.390;2023-08-20T09:23:10;8.65;;;3.58;;
20535;SDS011;10426;49.420;8.390;2023-08-20T09:25:37;4.57;;;3.60;;
20535;SDS011;10426;49.420;8.390;2023-08-20T09:28:03;3.60;;;3.33;;
20535;SDS011;10426;49.420;8.390;2023-08-20T09:30:31;4.18;;;3.88;;
20535;SDS011;10426;49.420;8.390;2023-08-20T09:33:04;3.75;;;3.45;;
20535;SDS011;10426;49.420;8.390;2023-08-20T09:35:31;4.53;;;3.53;;
20535;SDS011;10426;49.420;8.390;2023-08-20T09:37:59;4.10;;;3.70;;
20535;SDS011;10426;49.420;8.390;2023-08-20T09:40:26;3.97;;;3.58;;
20535;SDS011;10426;49.420;8.390;2023-08-20T09:42:53;4.00;;;3.60;;
20535;SDS011;10426;49.420;8.390;2023-08-20T09:45:20;5.20;;;3.70;;
20535;SDS011;10426;49.420;8.390;2023-08-20T09:47:48;4.80;;;3.78;;
20535;SDS011;10426;49.420;8.390;2023-08-20T09:50:16;4.60;;;3.50;;
20535;SDS011;10426;49.420;8.390;2023-08-20T09:52:44;4.70;;;3.73;;
20535;SDS011;10426;49.420;8.390;2023-08-20T09:55:16;4.13;;;3.50;;
20535;SDS011;10426;49.420;8.390;2023-08-20T09:57:43;3.97;;;3.65;;
20535;SDS011;10426;49.420;8.390;2023-08-20T10:00:10;3.97;;;3.60;;
20535;SDS011;10426;49.420;8.390;2023-08-20T10:02:37;3.90;;;3.63;;
20535;SDS011;10426;49.420;8.390;2023-08-20T10:05:06;3.60;;;3.33;;
20535;SDS011;10426;49.420;8.390;2023-08-20T10:07:34;3.85;;;3.55;;
20535;SDS011;10426;49.420;8.390;2023-08-20T10:10:01;4.53;;;3.80;;
20535;SDS011;10426;49.420;8.390;2023-08-20T10:12:29;4.25;;;3.58;;
20535;SDS011;10426;49.420;8.390;2023-08-20T10:14:56;3.72;;;3.40;;
20535;SDS011;10426;49.420;8.390;2023-08-20T10:17:23;3.70;;;3.42;;
20535;SDS011;10426;49.420;8.390;2023-08-20T10:19:51;4.97;;;3.40;;
20535;SDS011;10426;49.420;8.390;2023-08-20T10:22:19;4.13;;;3.67;;
20535;SDS011;10426;49.420;8.390;2023-08-20T10:24:49;4.00;;;3.58;;
20535;SDS011;10426;49.420;8.390;2023-08-20T10:27:25;4.88;;;3.47;;
20535;SDS011;10426;49.420;8.390;2023-08-20T10:29:52;3.95;;;3.42;;
20535;SDS011;10426;49.420;8.390;2023-08-20T10:32:19;4.00;;;3.45;;
20535;SDS011;10426;49.420;8.390;2023-08-20T10:34:49;8.73;;;3.85;;
20535;SDS011;10426;49.420;8.390;2023-08-20T10:37:20;3.78;;;3.53;;
20535;SDS011;10426;49.420;8.390;2023-08-20T10:39:54;3.33;;;3.10;;
20535;SDS011;10426;49.420;8.390;2023-08-20T10:42:25;3.47;;;3.20;;
20535;SDS011;10426;49.420;8.390;2023-08-20T10:45:01;4.38;;;3.60;;
20535;SDS011;10426;49.420;8.390;2023-08-20T10:47:36;3.35;;;3.15;;
20535;SDS011;10426;49.420;8.390;2023-08-20T10:50:03;3.70;;;3.28;;
20535;SDS011;10426;49.420;8.390;2023-08-20T10:52:30;3.40;;;3.10;;
20535;SDS011;10426;49.420;8.390;2023-08-20T10:54:58;3.30;;;3.00;;
20535;SDS011;10426;49.420;8.390;2023-08-20T10:57:32;4.00;;;3.70;;
20535;SDS011;10426;49.420;8.390;2023-08-20T10:59:59;3.60;;;3.30;;
20535;SDS011;10426;49.420;8.390;2023-08-20T11:02:30;3.53;;;3.22;;
20535;SDS011;10426;49.420;8.390;2023-08-20T11:04:57;3.85;;;3.15;;
20535;SDS011;10426;49.420;8.390;2023-08-20T11:07:24;3.40;;;3.10;;
20535;SDS011;10426;49.420;8.390;2023-08-20T11:09:52;4.13;;;3.30;;
20535;SDS011;10426;49.420;8.390;2023-08-20T11:12:21;4.10;;;3.00;;
20535;SDS011;10426;49.420;8.390;2023-08-20T11:14:48;3.30;;;3.00;;
20535;SDS011;10426;49.420;8.390;2023-08-20T11:17:15;3.20;;;2.80;;
20535;SDS011;10426;49.420;8.390;2023-08-20T11:19:41;3.55;;;3.20;;
20535;SDS011;10426;49.420;8.390;2023-08-20T11:22:08;3.17;;;3.05;;
20535;SDS011;10426;49.420;8.390;2023-08-20T11:24:35;3.20;;;3.00;;
20535;SDS011;10426;49.420;8.390;2023-08-20T11:27:04;3.83;;;3.10;;
20535;SDS011;10426;49.420;8.390;2023-08-20T11:29:32;3.20;;;3.00;;
20535;SDS011;10426;49.420;8.390;2023-08-20T11:31:59;3.60;;;3.20;;
20535;SDS011;10426;49.420;8.390;2023-08-20T11:34:28;4.83;;;3.20;;
20535;SDS011;10426;49.420;8.390;2023-08-20T11:36:55;3.40;;;3.10;;
20535;SDS011;10426;49.420;8.390;2023-08-20T11:39:22;3.33;;;3.00;;
20535;SDS011;10426;49.420;8.390;2023-08-20T11:41:49;3.20;;;2.90;;
20535;SDS011;10426;49.420;8.390;2023-08-20T11:44:18;3.50;;;3.13;;
20535;SDS011;10426;49.420;8.390;2023-08-20T11:46:47;3.90;;;2.90;;
20535;SDS011;10426;49.420;8.390;2023-08-20T11:49:13;3.65;;;3.00;;
20535;SDS011;10426;49.420;8.390;2023-08-20T11:51:41;3.20;;;2.90;;
20535;SDS011;10426;49.420;8.390;2023-08-20T11:54:09;3.50;;;3.20;;
20535;SDS011;10426;49.420;8.390;2023-08-20T11:56:36;4.55;;;3.03;;
20535;SDS011;10426;49.420;8.390;2023-08-20T11:59:04;3.47;;;3.17;;
20535;SDS011;10426;49.420;8.390;2023-08-20T12:01:30;3.10;;;2.90;;
20535;SDS011;10426;49.420;8.390;2023-08-20T12:04:00;2.60;;;2.40;;
20535;SDS011;10426;49.420;8.390;2023-08-20T12:06:28;3.22;;;2.80;;
20535;SDS011;10426;49.420;8.390;2023-08-20T12:08:56;3.78;;;2.70;;
20535;SDS011;10426;49.420;8.390;2023-08-20T12:11:23;3.50;;;2.90;;
20535;SDS011;10426;49.420;8.390;2023-08-20T12:13:50;3.00;;;2.40;;
20535;SDS011;10426;49.420;8.390;2023-08-20T12:16:17;2.80;;;2.70;;
20535;SDS011;10426;49.420;8.390;2023-08-20T12:18:45;5.75;;;3.10;;
20535;SDS011;10426;49.420;8.390;2023-08-20T12:21:13;3.13;;;2.92;;
20535;SDS011;10426;49.420;8.390;2023-08-20T12:23:40;4.18;;;2.70;;
20535;SDS011;10426;49.420;8.390;2023-08-20T12:26:06;3.03;;;2.63;;
20535;SDS011;10426;49.420;8.390;2023-08-20T12:28:33;3.43;;;2.80;;
20535;SDS011;10426;49.420;8.390;2023-08-20T12:31:00;5.43;;;2.93;;
20535;SDS011;10426;49.420;8.390;2023-08-20T12:33:26;3.30;;;2.90;;
20535;SDS011;10426;49.420;8.390;2023-08-20T12:35:53;3.50;;;2.90;;
20535;SDS011;10426;49.420;8.390;2023-08-20T12:38:21;3.20;;;3.00;;
20535;SDS011;10426;49.420;8.390;2023-08-20T12:40:48;5.10;;;3.00;;
20535;SDS011;10426;49.420;8.390;2023-08-20T12:43:15;3.25;;;2.80;;
20535;SDS011;10426;49.420;8.390;2023-08-20T12:45:42;3.10;;;2.80;;
20535;SDS011;10426;49.420;8.390;2023-08-20T12:48:08;3.10;;;2.80;;
20535;SDS011;10426;49.420;8.390;2023-08-20T12:50:35;2.70;;;2.50;;
20535;SDS011;10426;49.420;8.390;2023-08-20T12:53:02;3.13;;;2.50;;
20535;SDS011;10426;49.420;8.390;2023-08-20T12:55:30;4.18;;;2.55;;
20535;SDS011;10426;49.420;8.390;2023-08-20T12:57:57;3.03;;;2.80;;
20535;SDS011;10426;49.420;8.390;2023-08-20T13:00:24;3.20;;;2.60;;
20535;SDS011;10426;49.420;8.390;2023-08-20T13:02:51;2.90;;;2.65;;
20535;SDS011;10426;49.420;8.390;2023-08-20T13:05:18;4.05;;;2.63;;
20535;SDS011;10426;49.420;8.390;2023-08-20T13:07:45;2.70;;;2.50;;
20535;SDS011;10426;49.420;8.390;2023-08-20T13:10:12;2.78;;;2.58;;
20535;SDS011;10426;49.420;8.390;2023-08-20T13:12:41;3.63;;;2.70;;
20535;SDS011;10426;49.420;8.390;2023-08-20T13:15:08;2.58;;;2.38;;
20535;SDS011;10426;49.420;8.390;2023-08-20T13:17:36;2.95;;;2.53;;
20535;SDS011;10426;49.420;8.390;2023-08-20T13:20:03;4.10;;;2.67;;
20535;SDS011;10426;49.420;8.390;2023-08-20T13:22:30;3.25;;;2.90;;
20535;SDS011;10426;49.420;8.390;2023-08-20T13:24:57;2.57;;;2.40;;
20535;SDS011;10426;49.420;8.390;2023-08-20T13:27:24;2.67;;;2.47;;
20535;SDS011;10426;49.420;8.390;2023-08-20T13:29:52;2.97;;;2.53;;
20535;SDS011;10426;49.420;8.390;2023-08-20T13:32:19;2.72;;;2.50;;
20535;SDS011;10426;49.420;8.390;2023-08-20T13:34:45;2.63;;;2.40;;
20535;SDS011;10426;49.420;8.390;2023-08-20T13:37:12;4.90;;;2.38;;
20535;SDS011;10426;49.420;8.390;2023-08-20T13:39:39;2.90;;;2.20;;
20535;SDS011;10426;49.420;8.390;2023-08-20T13:42:05;4.15;;;2.65;;
20535;SDS011;10426;49.420;8.390;2023-08-20T13:44:32;2.43;;;2.23;;
20535;SDS011;10426;49.420;8.390;2023-08-20T13:47:00;2.97;;;2.57;;
20535;SDS011;10426;49.420;8.390;2023-08-20T13:49:27;3.67;;;2.42;;
20535;SDS011;10426;49.420;8.390;2023-08-20T13:51:56;2.88;;;2.60;;
20535;SDS011;10426;49.420;8.390;2023-08-20T13:54:23;3.30;;;2.63;;
20535;SDS011;10426;49.420;8.390;2023-08-20T13:56:50;3.37;;;2.30;;
20535;SDS011;10426;49.420;8.390;2023-08-20T13:59:16;4.40;;;2.40;;
20535;SDS011;10426;49.420;8.390;2023-08-20T14:01:43;2.57;;;2.37;;
20535;SDS011;10426;49.420;8.390;2023-08-20T14:04:11;2.60;;;2.40;;
20535;SDS011;10426;49.420;8.390;2023-08-20T14:06:38;2.58;;;2.20;;
20535;SDS011;10426;49.420;8.390;2023-08-20T14:09:04;4.32;;;2.30;;
20535;SDS011;10426;49.420;8.390;2023-08-20T14:11:31;2.30;;;2.15;;
20535;SDS011;10426;49.420;8.390;2023-08-20T14:13:58;2.67;;;2.47;;
20535;SDS011;10426;49.420;8.390;2023-08-20T14:16:24;2.70;;;2.13;;
20535;SDS011;10426;49.420;8.390;2023-08-20T14:18:51;2.40;;;2.20;;
20535;SDS011;10426;49.420;8.390;2023-08-20T14:21:19;2.38;;;2.17;;
20535;SDS011;10426;49.420;8.390;2023-08-20T14:23:47;4.07;;;2.17;;
20535;SDS011;10426;49.420;8.390;2023-08-20T14:26:14;2.17;;;2.00;;
20535;SDS011;10426;49.420;8.390;2023-08-20T14:28:41;2.30;;;2.10;;
20535;SDS011;10426;49.420;8.390;2023-08-20T14:31:08;3.00;;;2.30;;
20535;SDS011;10426;49.420;8.390;2023-08-20T14:33:35;3.17;;;2.08;;
20535;SDS011;10426;49.420;8.390;2023-08-20T14:36:02;2.50;;;2.30;;
20535;SDS011;10426;49.420;8.390;2023-08-20T14:38:30;2.67;;;2.25;;
20535;SDS011;10426;49.420;8.390;2023-08-20T14:40:59;2.35;;;2.17;;
20535;SDS011;10426;49.420;8.390;2023-08-20T14:43:25;2.13;;;1.95;;
20535;SDS011;10426;49.420;8.390;2023-08-20T14:45:52;3.58;;;2.15;;
20535;SDS011;10426;49.420;8.390;2023-08-20T14:48:19;2.20;;;2.10;;
20535;SDS011;10426;49.420;8.390;2023-08-20T14:50:46;2.40;;;2.20;;